createdAt,value
2018-03-21T00:02:23.173Z,5.03
2018-03-21T00:04:50.658Z,4.53
2018-03-21T00:07:18.212Z,4.57
2018-03-21T00:09:45.696Z,4.75
2018-03-21T00:12:13.170Z,4.45
2018-03-21T00:14:41.398Z,4.37
2018-03-21T00:17:08.882Z,4.20
2018-03-21T00:19:36.337Z,4.28
2018-03-21T00:22:03.804Z,4.35
2018-03-21T00:30:18.106Z,5.05
2018-03-21T00:32:46.442Z,5.12
2018-03-21T00:35:14.026Z,5.10
2018-03-21T00:40:32.097Z,5.15
2018-03-21T00:43:00.472Z,4.40
2018-03-21T00:45:28.821Z,5.72
2018-03-21T00:47:56.412Z,5.00
2018-03-21T00:50:24.752Z,4.62
2018-03-21T00:52:52.353Z,5.12
2018-03-21T00:55:20.718Z,4.90
2018-03-21T00:57:48.314Z,4.80
2018-03-21T01:00:16.658Z,5.25
2018-03-21T01:02:44.255Z,4.55
2018-03-21T01:05:11.827Z,4.40
2018-03-21T01:07:39.421Z,5.32
2018-03-21T01:10:07.209Z,4.78
2018-03-21T01:12:34.799Z,4.62
2018-03-21T01:15:03.167Z,4.05
2018-03-21T01:17:31.512Z,4.80
2018-03-21T01:19:59.079Z,4.30
2018-03-21T01:22:26.683Z,5.37
2018-03-21T01:24:55.025Z,4.35
2018-03-21T01:27:22.598Z,4.78
2018-03-21T01:29:50.177Z,4.40
2018-03-21T01:32:18.541Z,4.72
2018-03-21T01:34:46.879Z,3.80
2018-03-21T01:37:14.443Z,5.12
2018-03-21T01:39:42.041Z,4.25
2018-03-21T01:42:09.623Z,4.47
2018-03-21T01:44:37.960Z,4.70
2018-03-21T01:47:05.543Z,4.47
2018-03-21T01:49:33.921Z,4.70
2018-03-21T01:52:02.275Z,4.72
2018-03-21T01:54:29.845Z,5.37
2018-03-21T01:56:57.420Z,4.50
2018-03-21T01:59:24.991Z,5.05
2018-03-21T02:01:52.617Z,4.62
2018-03-21T02:04:20.178Z,4.30
2018-03-21T02:06:47.760Z,4.50
2018-03-21T02:09:15.337Z,4.68
2018-03-21T02:11:43.677Z,3.67
2018-03-21T02:14:11.300Z,5.80
2018-03-21T02:16:39.705Z,4.40
2018-03-21T02:22:00.609Z,4.07
2018-03-21T02:24:28.234Z,4.80
2018-03-21T02:26:56.598Z,4.12
2018-03-21T02:29:24.270Z,5.22
2018-03-21T02:31:51.857Z,4.90
2018-03-21T02:34:20.216Z,4.90
2018-03-21T02:36:47.797Z,4.95
2018-03-21T02:39:16.130Z,4.85
2018-03-21T02:41:43.770Z,4.90
2018-03-21T02:44:11.366Z,5.87
2018-03-21T02:46:38.952Z,5.35
2018-03-21T02:49:07.327Z,6.57
2018-03-21T02:51:35.712Z,6.37
2018-03-21T02:54:04.054Z,5.55
2018-03-21T02:56:31.642Z,5.20
2018-03-21T02:58:59.996Z,5.90
2018-03-21T03:01:27.568Z,5.45
2018-03-21T03:03:55.137Z,6.10
2018-03-21T03:06:22.720Z,5.20
2018-03-21T03:08:51.075Z,5.00
2018-03-21T03:11:19.450Z,5.15
2018-03-21T03:13:47.077Z,6.20
2018-03-21T03:16:14.659Z,5.50
2018-03-21T03:18:42.523Z,5.78
2018-03-21T03:21:10.105Z,5.78
2018-03-21T03:23:37.728Z,6.45
2018-03-21T03:26:05.342Z,5.47
2018-03-21T03:28:33.691Z,5.70
2018-03-21T03:31:01.274Z,5.62
2018-03-21T03:33:28.868Z,5.85
2018-03-21T03:35:56.429Z,6.43
2018-03-21T03:38:24.021Z,5.70
2018-03-21T03:40:51.624Z,6.18
2018-03-21T03:43:19.187Z,5.68
2018-03-21T03:45:47.547Z,6.18
2018-03-21T03:48:15.214Z,5.37
2018-03-21T03:50:42.809Z,5.30
2018-03-21T03:53:10.408Z,5.82
2018-03-21T03:55:38.011Z,6.22
2018-03-21T03:58:06.352Z,5.90
2018-03-21T04:00:34.000Z,6.30
2018-03-21T04:03:01.582Z,6.03
2018-03-21T04:05:29.171Z,5.90
2018-03-21T04:07:56.767Z,5.97
2018-03-21T04:10:24.368Z,6.70
2018-03-21T04:12:51.971Z,7.00
2018-03-21T04:15:20.312Z,6.28
2018-03-21T04:17:47.881Z,6.15
2018-03-21T04:20:15.461Z,5.60
2018-03-21T04:22:43.837Z,5.65
2018-03-21T04:25:11.407Z,5.93
2018-03-21T04:27:39.752Z,5.55
2018-03-21T04:30:07.328Z,5.75
2018-03-21T04:32:34.941Z,7.00
2018-03-21T04:35:02.503Z,5.50
2018-03-21T04:37:30.107Z,5.25
2018-03-21T04:39:57.699Z,5.82
2018-03-21T04:42:26.058Z,5.40
2018-03-21T04:44:56.680Z,5.75
2018-03-21T04:47:24.272Z,6.55
2018-03-21T04:49:52.619Z,6.35
2018-03-21T04:52:20.190Z,5.40
2018-03-21T04:54:47.760Z,5.97
2018-03-21T04:57:16.107Z,5.70
2018-03-21T04:59:43.693Z,5.82
2018-03-21T05:02:11.254Z,6.35
2018-03-21T05:04:38.837Z,6.82
2018-03-21T05:07:07.171Z,5.72
2018-03-21T05:09:34.809Z,6.35
2018-03-21T05:12:02.392Z,6.78
2018-03-21T05:14:29.964Z,6.60
2018-03-21T05:16:57.805Z,6.40
2018-03-21T05:19:25.402Z,6.00
2018-03-21T05:21:52.955Z,5.60
2018-03-21T05:24:20.524Z,7.05
2018-03-21T05:26:48.876Z,6.82
2018-03-21T05:29:16.447Z,6.55
2018-03-21T05:31:44.019Z,6.65
2018-03-21T05:34:11.632Z,6.65
2018-03-21T05:36:40.084Z,6.43
2018-03-21T05:39:08.424Z,6.20
2018-03-21T05:41:35.979Z,6.20
2018-03-21T05:44:03.617Z,7.60
2018-03-21T05:46:31.180Z,6.57
2018-03-21T05:48:58.747Z,6.32
2018-03-21T05:51:26.317Z,7.72
2018-03-21T05:53:53.896Z,7.35
2018-03-21T05:56:21.489Z,6.40
2018-03-21T05:58:49.815Z,7.45
2018-03-21T06:01:17.386Z,6.87
2018-03-21T06:03:44.984Z,5.78
2018-03-21T06:06:13.333Z,7.03
2018-03-21T06:08:40.909Z,5.85
2018-03-21T06:11:08.489Z,6.25
2018-03-21T06:13:36.816Z,6.10
2018-03-21T06:16:04.401Z,6.43
2018-03-21T06:18:32.177Z,5.93
2018-03-21T06:20:59.778Z,6.37
2018-03-21T06:23:27.406Z,6.18
2018-03-21T06:25:54.987Z,6.22
2018-03-21T06:28:23.325Z,6.80
2018-03-21T06:30:50.927Z,6.95
2018-03-21T06:33:19.272Z,6.45
2018-03-21T06:35:46.833Z,6.75
2018-03-21T06:38:14.421Z,6.68
2018-03-21T06:40:42.751Z,5.70
2018-03-21T06:43:10.357Z,5.82
2018-03-21T06:45:38.700Z,6.57
2018-03-21T06:48:06.387Z,6.70
2018-03-21T06:50:34.027Z,5.60
2018-03-21T06:53:01.604Z,5.70
2018-03-21T06:55:29.188Z,6.55
2018-03-21T06:57:57.554Z,6.95
2018-03-21T07:00:25.226Z,5.97
2018-03-21T07:02:53.564Z,5.70
2018-03-21T07:05:21.151Z,5.62
2018-03-21T07:07:49.154Z,6.20
2018-03-21T07:10:16.940Z,5.68
2018-03-21T07:12:44.521Z,6.00
2018-03-21T07:15:24.085Z,7.07
2018-03-21T07:17:51.645Z,7.50
2018-03-21T07:20:19.232Z,6.25
2018-03-21T07:22:47.575Z,6.40
2018-03-21T07:25:15.150Z,5.97
2018-03-21T07:27:42.720Z,5.75
2018-03-21T07:30:10.388Z,5.20
2018-03-21T07:32:38.762Z,5.75
2018-03-21T07:35:07.297Z,5.32
2018-03-21T07:37:34.882Z,5.18
2018-03-21T07:42:37.210Z,5.23
2018-03-21T07:45:05.616Z,4.53
2018-03-21T07:47:33.193Z,5.00
2018-03-21T07:50:00.759Z,5.30
2018-03-21T07:52:28.347Z,5.83
2018-03-21T07:54:56.787Z,6.17
2018-03-21T07:57:26.861Z,5.60
2018-03-21T07:59:57.709Z,5.57
2018-03-21T08:02:26.535Z,5.20
2018-03-21T08:04:55.097Z,6.20
2018-03-21T08:07:24.012Z,7.63
2018-03-21T08:09:52.208Z,11.40
2018-03-21T08:12:21.078Z,9.73
2018-03-21T08:14:49.274Z,6.13
2018-03-21T08:17:18.325Z,7.23
2018-03-21T08:19:47.196Z,5.77
2018-03-21T08:22:15.904Z,5.03
2018-03-21T08:24:50.017Z,5.30
2018-03-21T08:27:21.245Z,5.10
2018-03-21T08:35:13.364Z,5.17
2018-03-21T08:37:42.599Z,4.83
2018-03-21T08:40:10.432Z,5.27
2018-03-21T08:42:38.391Z,4.83
2018-03-21T08:45:06.473Z,4.70
2018-03-21T08:47:34.543Z,4.50
2018-03-21T08:50:02.742Z,4.53
2018-03-21T08:52:30.692Z,5.33
2018-03-21T08:54:59.898Z,4.53
2018-03-21T08:57:28.285Z,5.33
2018-03-21T08:59:56.273Z,4.67
2018-03-21T09:02:24.321Z,5.17
2018-03-21T09:04:52.166Z,4.60
2018-03-21T09:07:22.724Z,4.80
2018-03-21T09:09:51.169Z,5.10
2018-03-21T09:12:20.683Z,4.40
2018-03-21T09:14:50.406Z,4.20
2018-03-21T09:17:18.780Z,3.90
2018-03-21T09:19:46.862Z,4.20
2018-03-21T09:22:15.123Z,4.90
2018-03-21T09:24:43.049Z,3.50
2018-03-21T09:27:10.958Z,4.17
2018-03-21T09:29:38.981Z,4.53
2018-03-21T09:32:11.833Z,4.73
2018-03-21T09:34:41.733Z,4.50
2018-03-21T09:37:15.319Z,4.37
2018-03-21T09:39:45.060Z,4.10
2018-03-21T09:42:13.201Z,4.40
2018-03-21T09:44:42.643Z,3.80
2018-03-21T09:47:10.512Z,4.00
2018-03-21T09:49:38.634Z,4.40
2018-03-21T09:52:06.828Z,4.00
2018-03-21T09:54:50.496Z,4.17
2018-03-21T09:57:18.657Z,5.03
2018-03-21T09:59:46.642Z,3.70
2018-03-21T10:02:14.824Z,3.87
2018-03-21T10:04:57.226Z,3.90
2018-03-21T10:07:25.537Z,3.80
2018-03-21T10:09:53.887Z,3.67
2018-03-21T10:12:21.854Z,4.57
2018-03-21T10:14:53.625Z,4.03
2018-03-21T10:17:25.083Z,3.47
2018-03-21T10:19:56.728Z,4.37
2018-03-21T10:22:25.518Z,3.90
2018-03-21T10:24:54.099Z,3.33
2018-03-21T10:27:22.460Z,4.10
2018-03-21T10:29:51.365Z,3.67
2018-03-21T10:32:19.337Z,3.90
2018-03-21T10:34:47.102Z,3.73
2018-03-21T10:37:15.206Z,3.70
2018-03-21T10:39:43.425Z,3.00
2018-03-21T10:42:13.257Z,3.50
2018-03-21T10:44:41.224Z,2.63
2018-03-21T10:47:09.730Z,2.90
2018-03-21T10:49:38.216Z,3.17
2018-03-21T10:52:07.298Z,3.13
2018-03-21T10:54:35.564Z,3.30
2018-03-21T10:57:03.516Z,3.50
2018-03-21T10:59:32.615Z,3.50
2018-03-21T11:02:07.132Z,3.67
2018-03-21T11:04:36.039Z,3.30
2018-03-21T11:07:19.918Z,3.20
2018-03-21T11:09:55.551Z,4.27
2018-03-21T11:12:24.556Z,2.83
2018-03-21T11:14:55.613Z,3.10
2018-03-21T11:17:23.594Z,1.90
2018-03-21T11:19:51.636Z,2.47
2018-03-21T11:22:19.355Z,3.50
2018-03-21T11:24:48.430Z,3.90
2018-03-21T11:27:17.320Z,4.83
2018-03-21T11:29:45.346Z,2.60
2018-03-21T11:32:13.326Z,3.17
2018-03-21T11:34:41.321Z,4.40
2018-03-21T11:37:10.078Z,6.40
2018-03-21T11:39:38.548Z,4.80
2018-03-21T11:42:07.313Z,5.63
2018-03-21T11:44:35.242Z,6.00
2018-03-21T11:47:03.658Z,4.17
2018-03-21T11:49:31.883Z,4.10
2018-03-21T11:51:59.927Z,5.17
2018-03-21T11:54:28.027Z,5.10
2018-03-21T11:56:55.833Z,4.50
2018-03-21T11:59:23.986Z,4.30
2018-03-21T12:01:51.988Z,3.43
2018-03-21T12:04:20.322Z,4.03
2018-03-21T12:07:08.411Z,4.43
2018-03-21T12:09:40.968Z,4.40
2018-03-21T12:12:08.548Z,2.47
2018-03-21T12:14:36.188Z,2.40
2018-03-21T12:17:03.767Z,3.00
2018-03-21T12:19:31.332Z,3.00
2018-03-21T12:21:59.773Z,3.47
2018-03-21T12:24:27.372Z,4.20
2018-03-21T12:26:55.031Z,4.13
2018-03-21T12:29:22.647Z,4.77
2018-03-21T12:31:50.269Z,4.90
2018-03-21T12:34:17.849Z,6.20
2018-03-21T12:36:46.180Z,5.93
2018-03-21T12:39:16.687Z,5.67
2018-03-21T12:41:44.301Z,6.17
2018-03-21T12:44:11.994Z,7.07
2018-03-21T12:46:39.582Z,7.67
2018-03-21T12:49:07.150Z,7.70
2018-03-21T12:54:26.004Z,7.13
2018-03-21T12:56:53.665Z,7.40
2018-03-21T12:59:21.276Z,7.37
2018-03-21T13:01:48.912Z,7.00
2018-03-21T13:04:16.573Z,8.23
2018-03-21T13:06:44.189Z,6.57
2018-03-21T13:09:12.531Z,6.23
2018-03-21T13:11:40.169Z,6.73
2018-03-21T13:14:08.246Z,7.77
2018-03-21T13:16:36.677Z,7.60
2018-03-21T13:19:07.823Z,7.13
2018-03-21T13:21:37.138Z,6.80
2018-03-21T13:37:32.633Z,7.10
2018-03-21T13:40:11.167Z,6.83
2018-03-21T13:42:54.224Z,7.63
2018-03-21T13:45:21.813Z,6.73
2018-03-21T13:47:49.423Z,6.53
2018-03-21T13:50:17.028Z,6.60
2018-03-21T13:52:44.737Z,6.27
2018-03-21T13:55:13.094Z,5.77
2018-03-21T13:57:40.675Z,6.37
2018-03-21T14:00:09.083Z,6.00
2018-03-21T14:02:36.669Z,6.73
2018-03-21T14:05:04.316Z,6.40
2018-03-21T14:07:31.923Z,5.50
2018-03-21T14:10:00.467Z,5.70
2018-03-21T14:12:28.066Z,6.03
2018-03-21T14:14:55.661Z,5.60
2018-03-21T14:17:23.302Z,6.53
2018-03-21T14:19:51.951Z,6.00
2018-03-21T14:22:19.972Z,6.30
2018-03-21T14:24:47.664Z,6.30
2018-03-21T14:27:15.241Z,6.17
2018-03-21T14:29:42.905Z,5.80
2018-03-21T14:32:10.605Z,7.17
2018-03-21T14:34:38.221Z,5.93
2018-03-21T14:37:05.943Z,7.20
2018-03-21T14:39:34.439Z,6.00
2018-03-21T14:42:02.034Z,6.23
2018-03-21T14:44:29.696Z,6.50
2018-03-21T14:46:57.333Z,6.17
2018-03-21T14:49:24.916Z,7.07
2018-03-21T14:51:52.545Z,6.57
2018-03-21T14:54:20.871Z,5.00
2018-03-21T14:56:48.675Z,6.50
2018-03-21T14:59:16.297Z,6.40
2018-03-21T15:01:43.916Z,5.80
2018-03-21T15:04:11.505Z,6.67
2018-03-21T15:06:39.120Z,5.57
2018-03-21T15:09:06.725Z,5.60
2018-03-21T15:11:34.352Z,5.53
2018-03-21T15:14:02.722Z,6.50
2018-03-21T15:16:30.302Z,6.33
2018-03-21T15:18:57.959Z,6.17
2018-03-21T15:21:26.310Z,6.50
2018-03-21T15:23:53.889Z,6.00
2018-03-21T15:26:21.453Z,6.40
2018-03-21T15:28:49.886Z,6.37
2018-03-21T15:31:17.503Z,5.70
2018-03-21T15:33:45.866Z,5.20
2018-03-21T15:36:13.450Z,5.43
2018-03-21T15:38:41.072Z,5.10
2018-03-21T15:41:08.651Z,5.60
2018-03-21T15:43:36.242Z,4.53
2018-03-21T15:46:04.864Z,5.17
2018-03-21T15:48:32.450Z,4.93
2018-03-21T15:51:00.054Z,5.90
2018-03-21T15:53:27.640Z,5.20
2018-03-21T15:55:55.307Z,6.47
2018-03-21T15:58:22.985Z,5.87
2018-03-21T16:00:50.644Z,5.50
2018-03-21T16:03:18.423Z,6.50
2018-03-21T16:05:46.064Z,6.47
2018-03-21T16:08:13.737Z,6.27
2018-03-21T16:10:41.495Z,6.80
2018-03-21T16:13:09.111Z,6.70
2018-03-21T16:15:37.557Z,6.87
2018-03-21T16:18:05.267Z,6.00
2018-03-21T16:20:33.059Z,5.90
2018-03-21T16:23:00.662Z,7.20
2018-03-21T16:25:28.337Z,7.70
2018-03-21T16:27:55.916Z,6.03
2018-03-21T16:30:23.537Z,7.07
2018-03-21T16:32:51.935Z,6.57
2018-03-21T16:35:20.338Z,7.90
2018-03-21T16:37:48.795Z,7.63
2018-03-21T16:40:16.922Z,7.30
2018-03-21T16:42:44.563Z,7.70
2018-03-21T16:45:12.710Z,7.00
2018-03-21T16:47:41.450Z,8.70
2018-03-21T16:50:09.622Z,8.30
2018-03-21T16:52:37.490Z,8.17
2018-03-21T16:55:05.395Z,9.63
2018-03-21T16:57:33.329Z,8.50
2018-03-21T17:00:01.301Z,8.73
2018-03-21T17:02:29.015Z,7.93
2018-03-21T17:04:56.648Z,8.07
2018-03-21T17:07:25.264Z,7.10
2018-03-21T17:09:53.961Z,7.23
2018-03-21T17:12:22.789Z,7.80
2018-03-21T17:14:51.051Z,7.00
2018-03-21T17:17:19.032Z,6.57
2018-03-21T17:19:47.112Z,6.67
2018-03-21T17:22:16.390Z,6.63
2018-03-21T17:24:44.312Z,6.83
2018-03-21T17:27:12.015Z,7.80
2018-03-21T17:29:39.624Z,7.50
2018-03-21T17:34:42.291Z,7.80
2018-03-21T17:37:10.053Z,8.40
2018-03-21T17:39:38.165Z,8.33
2018-03-21T17:42:05.908Z,7.17
2018-03-21T17:44:33.571Z,8.70
2018-03-21T17:47:01.434Z,8.00
2018-03-21T17:49:30.465Z,8.53
2018-03-21T17:51:58.855Z,8.27
2018-03-21T17:54:27.501Z,8.27
2018-03-21T17:56:56.760Z,9.10
2018-03-21T17:59:25.268Z,9.53
2018-03-21T18:01:53.546Z,8.40
2018-03-21T18:04:21.998Z,9.20
2018-03-21T18:06:50.918Z,9.20
2018-03-21T18:09:19.320Z,10.00
2018-03-21T18:11:47.407Z,9.93
2018-03-21T18:14:16.896Z,10.37
2018-03-21T18:16:45.005Z,10.33
2018-03-21T18:19:15.783Z,9.77
2018-03-21T18:21:43.544Z,10.03
2018-03-21T18:24:11.626Z,10.30
2018-03-21T18:26:39.399Z,8.90
2018-03-21T18:29:07.044Z,9.93
2018-03-21T18:31:35.492Z,10.03
2018-03-21T18:34:03.117Z,9.83
2018-03-21T18:36:30.916Z,10.33
2018-03-21T18:38:58.752Z,9.50
2018-03-21T18:41:26.503Z,9.37
2018-03-21T18:43:54.484Z,10.60
2018-03-21T18:46:26.963Z,9.40
2018-03-21T18:48:54.898Z,9.05
2018-03-21T18:51:23.590Z,9.00
2018-03-21T18:53:51.243Z,9.20
2018-03-21T18:56:19.697Z,8.37
2018-03-21T18:58:47.297Z,9.50
2018-03-21T19:01:15.015Z,8.75
2018-03-21T19:03:43.323Z,8.93
2018-03-21T19:06:13.079Z,8.80
2018-03-21T19:08:40.862Z,8.30
2018-03-21T19:11:08.514Z,8.18
2018-03-21T19:13:36.120Z,8.88
2018-03-21T19:16:03.728Z,7.95
2018-03-21T19:18:31.371Z,8.43
2018-03-21T19:20:58.968Z,8.35
2018-03-21T19:23:26.736Z,8.50
2018-03-21T19:25:54.363Z,8.57
2018-03-21T19:28:22.393Z,7.65
2018-03-21T19:30:49.998Z,8.38
2018-03-21T19:33:17.627Z,8.60
2018-03-21T19:35:46.306Z,7.90
2018-03-21T19:38:13.911Z,7.80
2018-03-21T19:40:41.586Z,7.55
2018-03-21T19:43:09.168Z,8.07
2018-03-21T19:45:36.785Z,7.47
2018-03-21T19:48:04.572Z,7.80
2018-03-21T19:50:32.533Z,8.80
2018-03-21T19:53:00.430Z,9.13
2018-03-21T19:55:28.956Z,7.70
2018-03-21T19:57:57.356Z,8.38
2018-03-21T20:00:24.987Z,8.25
2018-03-21T20:02:54.250Z,8.45
2018-03-21T20:05:21.886Z,8.40
2018-03-21T20:07:49.490Z,8.60
2018-03-21T20:10:17.110Z,9.07
2018-03-21T20:12:44.872Z,8.30
2018-03-21T20:15:13.183Z,9.10
2018-03-21T20:17:40.818Z,9.47
2018-03-21T20:20:09.171Z,8.07
2018-03-21T20:22:36.897Z,8.00
2018-03-21T20:25:04.503Z,7.57
2018-03-21T20:27:32.886Z,8.07
2018-03-21T20:30:01.259Z,8.10
2018-03-21T20:32:29.651Z,7.05
2018-03-21T20:34:57.284Z,8.32
2018-03-21T20:37:24.945Z,8.27
2018-03-21T20:39:52.533Z,7.97
2018-03-21T20:42:20.885Z,8.50
2018-03-21T20:44:48.468Z,8.15
2018-03-21T20:47:16.846Z,6.62
2018-03-21T20:49:45.282Z,7.70
2018-03-21T20:52:12.870Z,7.60
2018-03-21T20:54:40.498Z,8.15
2018-03-21T20:57:08.110Z,7.78
2018-03-21T20:59:36.472Z,8.25
2018-03-21T21:02:04.113Z,8.18
2018-03-21T21:04:31.801Z,8.70
2018-03-21T21:06:59.363Z,9.20
2018-03-21T21:09:26.992Z,8.63
2018-03-21T21:11:54.831Z,8.32
2018-03-21T21:14:22.681Z,8.50
2018-03-21T21:16:50.323Z,8.73
2018-03-21T21:19:18.740Z,10.25
2018-03-21T21:21:46.465Z,9.23
2018-03-21T21:24:14.095Z,10.25
2018-03-21T21:26:41.713Z,10.50
2018-03-21T21:29:10.081Z,11.07
2018-03-21T21:31:37.685Z,10.05
2018-03-21T21:34:05.269Z,9.82
2018-03-21T21:36:32.888Z,13.38
2018-03-21T21:39:00.497Z,11.60
2018-03-21T21:41:28.092Z,12.00
2018-03-21T21:43:56.504Z,13.65
2018-03-21T21:46:24.113Z,14.20
2018-03-21T21:48:51.717Z,14.52
2018-03-21T21:51:19.338Z,14.20
2018-03-21T21:53:46.943Z,15.35
2018-03-21T21:56:14.548Z,17.73
2018-03-21T21:58:43.384Z,18.15
2018-03-21T22:01:11.752Z,18.10
2018-03-21T22:03:40.111Z,17.37
2018-03-21T22:06:07.723Z,17.90
2018-03-21T22:08:35.320Z,19.33
2018-03-21T22:11:02.901Z,20.30
2018-03-21T22:13:30.515Z,19.45
2018-03-21T22:15:58.180Z,18.83
2018-03-21T22:18:25.778Z,19.70
2018-03-21T22:20:53.845Z,20.25
2018-03-21T22:23:21.461Z,19.50
2018-03-21T22:25:49.086Z,19.83
2018-03-21T22:28:16.680Z,19.85
2018-03-21T22:30:45.035Z,21.23
2018-03-21T22:33:12.637Z,21.75
2018-03-21T22:35:40.260Z,22.15
2018-03-21T22:38:07.883Z,20.88
2018-03-21T22:40:35.470Z,22.40
2018-03-21T22:43:03.052Z,22.52
2018-03-21T22:45:31.435Z,24.05
2018-03-21T22:47:59.818Z,21.20
2018-03-21T22:50:28.181Z,22.23
2018-03-21T22:52:55.767Z,23.23
2018-03-21T22:55:24.130Z,23.15
2018-03-21T23:00:42.272Z,25.15
2018-03-21T23:03:09.838Z,25.40
2018-03-21T23:05:37.693Z,23.05
2018-03-21T23:08:05.341Z,24.35
2018-03-21T23:10:33.019Z,26.52
2018-03-21T23:13:00.707Z,25.15
2018-03-21T23:15:29.064Z,24.98
2018-03-21T23:17:56.671Z,23.98
2018-03-21T23:20:24.278Z,25.35
2018-03-21T23:22:51.898Z,25.08
2018-03-21T23:25:19.577Z,25.70
2018-03-21T23:27:47.212Z,23.23
2018-03-21T23:30:15.569Z,24.75
2018-03-21T23:32:43.200Z,25.48
2018-03-21T23:35:10.810Z,24.00
2018-03-21T23:37:39.170Z,24.05
2018-03-21T23:40:06.814Z,27.05
2018-03-21T23:42:34.431Z,25.25
2018-03-21T23:45:02.048Z,26.12
2018-03-21T23:47:30.461Z,24.20
2018-03-21T23:49:58.856Z,24.70
2018-03-21T23:52:26.487Z,23.27
2018-03-21T23:54:54.091Z,25.40
2018-03-21T23:57:21.694Z,25.00
2018-03-21T23:59:49.307Z,23.30
